Impacts METAR Board
IDs:

KBVI - Beaver Falls Arpt, PA, US

Updated at: 2200 UTC 01 Feb 2023
Potential Impact None Slight Moderate High
Time 01/10Z 01/11Z 01/12Z 01/13Z 01/14Z 01/15Z 01/16Z 01/17Z 01/18Z 01/19Z 01/20Z 01/21Z 01/22Z
Temp15 15 13 13 17 20 23 25 27 28 30 30 29
Dewpt10 9 8 8 10 10 7 4 2 3 3 5 6
Altim30.28 30.29 30.31 30.33 30.34 30.37 30.37 30.35 30.31 30.29 30.28 30.27 30.27
VIS10 10 10 10 10 10 10 10 10 10 10 10 10
CIG20 20 -- -- -- -- -- -- -- -- -- -- --
CoverBKNBKNCLRCLRCLRCLRCLRCLRCLRCLRCLRCLRCLR
FltCatMVFRMVFRVFRVFRVFRVFRVFRVFRVFRVFRVFRVFRVFR
WX--------------------------
WDir3603403100330310350320300250290270300
WSpd3 3 3 0 4 4 3 5 4 6 4 6 4
WGst-- -- -- -- -- -- -- -- -- -- -- -- --
Raw hourly METARs
KBVI 010955Z AUTO 36003KT 10SM BKN020 M09/M12 A3028 RMK AO2 T10921124
KBVI 011055Z AUTO 34003KT 10SM BKN020 M10/M13 A3029 RMK AO2 T10961127
KBVI 011155Z AUTO 31003KT 10SM CLR M11/M13 A3031 RMK AO2 T11061133
KBVI 011255Z AUTO 00000KT 10SM CLR M10/M13 A3033 RMK AO2 T11051131
KBVI 011355Z AUTO 33004KT 10SM CLR M08/M12 A3034 RMK AO2 T10851125
KBVI 011455Z AUTO 31004KT 10SM CLR M07/M12 A3037 RMK AO2 T10681122
KBVI 011555Z AUTO 35003KT 10SM CLR M05/M14 A3037 RMK AO2 T10521139
KBVI 011655Z AUTO 32005KT 10SM CLR M04/M15 A3035 RMK AO2 T10401155
KBVI 011755Z AUTO 30004KT 10SM CLR M03/M16 A3031 RMK AO2 T10271164
KBVI 011855Z AUTO 25006KT 10SM CLR M02/M16 A3029 RMK AO2 T10211160
KBVI 011955Z AUTO 29004KT 10SM CLR M01/M16 A3028 RMK AO2 T10111159
KBVI 012055Z AUTO 27006KT 10SM CLR M01/M15 A3027 RMK AO2 T10121149
KBVI 012155Z AUTO 30004KT 10SM CLR M02/M14 A3027 RMK AO2 T10191145



Page loaded:  22:17 UTC  |   02:17 PM Pacific  |   03:17 PM Mountain  |   04:17 PM Central  |   05:17 PM Eastern

 

ADVISORIES

FORECASTS

FORECASTS

OBSERVATIONS

USER TOOLS

ABOUT US